^^
Grace C. Lehan Memorial Weather Station Historical Data
Daily Summary for May 29, 2021 Units:  Metric    English   Both
Daily Weekly Monthly Yearly
  High: Low: Average:
Temperature: 37.6 °C 24.1 °C 28.8 °C
Dew Point: 26.4 °C 21.9 °C 23.8 °C
Humidity: 94% 46% 76%
Wind Speed: 10km/h 0km/h 0.6km/h
Wind Gust: 40.2km/h - -
Wind- - WSW
Pressure: 1020.9 hPa 1016.1 hPa -
Precipitation: 5.84 mm    
 
 
Tabular Data for May 29, 2021
Time Temperature Dew Point Pressure Wind Wind Speed Wind Gust Humidity Rainfall Rate (Hourly) solar
00:00 26.2 °C 22.7 °C 1020.2 hPa Calm     81% 0 mm 0 W/m2
00:09 26.2 °C 22.6 °C 1020.2 hPa Calm     81% 0 mm 0 W/m2
00:14 26.1 °C 22.6 °C 1020.2 hPa Calm     81% 0 mm 0 W/m2
00:19 26.1 °C 22.5 °C 1020.2 hPa Calm     81% 0 mm 0 W/m2
00:24 25.9 °C 22.5 °C 1020.2 hPa Calm     81.3% 0 mm 0 W/m2
00:29 25.9 °C 22.6 °C 1019.9 hPa Calm     82% 0 mm 0 W/m2
00:34 25.8 °C 22.6 °C 1020.2 hPa Calm     82% 0 mm 0 W/m2
00:39 25.8 °C 22.5 °C 1019.9 hPa Calm     82% 0 mm 0 W/m2
00:44 25.8 °C 22.4 °C 1020.2 hPa Calm     82% 0 mm 0 W/m2
00:49 25.7 °C 22.4 °C 1020.2 hPa Calm     82% 0 mm 0 W/m2
00:54 25.7 °C 22.3 °C 1020.2 hPa Calm     82% 0 mm 0 W/m2
00:59 25.6 °C 22.3 °C 1020.2 hPa Calm     82.2% 0 mm 0 W/m2
01:04 25.6 °C 22.4 °C 1020.2 hPa Calm     83% 0 mm 0 W/m2
01:09 25.5 °C 22.4 °C 1020.2 hPa Calm     83% 0 mm 0 W/m2
01:14 25.4 °C 22.3 °C 1020.2 hPa Calm     83% 0 mm 0 W/m2
01:19 25.4 °C 22.3 °C 1020.2 hPa Calm     83% 0 mm 0 W/m2
01:24 25.3 °C 22.2 °C 1020.2 hPa Calm     83% 0 mm 0 W/m2
01:29 25.3 °C 22.4 °C 1020.2 hPa Calm     84% 0 mm 0 W/m2
01:34 25.2 °C 22.3 °C 1020.2 hPa Calm     84% 0 mm 0 W/m2
01:39 25.2 °C 22.3 °C 1020.2 hPa Calm     84% 0 mm 0 W/m2
01:44 25.2 °C 22.3 °C 1020.2 hPa Calm     84.3% 0 mm 0 W/m2
01:49 25.1 °C 22.4 °C 1020.2 hPa Calm     85% 0 mm 0 W/m2
01:54 25.1 °C 22.4 °C 1020.2 hPa Calm     85% 0 mm 0 W/m2
01:59 25.1 °C 22.4 °C 1019.9 hPa Calm     85% 0 mm 0 W/m2
02:04 25.1 °C 22.3 °C 1019.9 hPa Calm     85% 0 mm 0 W/m2
02:09 25 °C 22.3 °C 1019.9 hPa Calm     85% 0 mm 0 W/m2
02:14 25 °C 22.3 °C 1019.9 hPa Calm     85% 0 mm 0 W/m2
02:19 25 °C 22.3 °C 1019.9 hPa Calm     85% 0 mm 0 W/m2
02:24 24.9 °C 22.3 °C 1019.9 hPa Calm     85% 0 mm 0 W/m2
02:29 24.9 °C 22.3 °C 1019.9 hPa Calm     85% 0 mm 0 W/m2
02:34 24.9 °C 22.2 °C 1019.9 hPa Calm     85% 0 mm 0 W/m2
02:39 24.9 °C 22.2 °C 1019.9 hPa Calm     85% 0 mm 0 W/m2
02:44 24.9 °C 22.2 °C 1019.9 hPa Calm     85% 0 mm 0 W/m2
02:49 24.9 °C 22.2 °C 1019.9 hPa Calm     85% 0 mm 0 W/m2
02:54 24.9 °C 22.2 °C 1019.9 hPa Calm     85% 0 mm 0 W/m2
02:59 24.9 °C 22.2 °C 1019.9 hPa Calm     85% 0 mm 0 W/m2
03:04 24.8 °C 22.2 °C 1019.9 hPa Calm     85% 0 mm 0 W/m2
03:09 24.8 °C 22.2 °C 1019.9 hPa Calm     85% 0 mm 0 W/m2
03:14 24.8 °C 22.1 °C 1019.9 hPa Calm     85.2% 0 mm 0 W/m2
03:19 24.7 °C 22.2 °C 1019.9 hPa Calm     86% 0 mm 0 W/m2
03:24 24.7 °C 22.2 °C 1019.9 hPa Calm     86% 0 mm 0 W/m2
03:29 24.6 °C 22.1 °C 1019.9 hPa Calm     86% 0 mm 0 W/m2
03:34 24.6 °C 22.1 °C 1019.9 hPa Calm     86% 0 mm 0 W/m2
03:39 24.5 °C 22.1 °C 1019.9 hPa Calm     86% 0 mm 0 W/m2
03:44 24.5 °C 22 °C 1019.9 hPa Calm     86% 0 mm 0 W/m2
03:49 24.4 °C 21.9 °C 1019.9 hPa Calm     86% 0 mm 0 W/m2
03:54 24.4 °C 22.1 °C 1019.9 hPa Calm     86.9% 0 mm 0 W/m2
03:59 24.4 °C 22.1 °C 1019.9 hPa Calm     87% 0 mm 0 W/m2
04:04 24.3 °C 22.1 °C 1019.9 hPa Calm     87% 0 mm 0 W/m2
04:09 24.3 °C 22.1 °C 1019.9 hPa Calm     87% 0 mm 0 W/m2
04:14 24.3 °C 22 °C 1019.9 hPa Calm     87% 0 mm 0 W/m2
04:19 24.3 °C 22 °C 1019.9 hPa Calm     87% 0 mm 0 W/m2
04:24 24.3 °C 22 °C 1019.9 hPa Calm     87% 0 mm 0 W/m2
04:29 24.3 °C 22 °C 1019.9 hPa Calm     87% 0 mm 0 W/m2
04:34 24.3 °C 22 °C 1020.2 hPa Calm     87.1% 0 mm 0 W/m2
04:39 24.2 °C 22.1 °C 1020.2 hPa Calm     88% 0 mm 0 W/m2
04:44 24.2 °C 22.1 °C 1020.2 hPa Calm     88% 0 mm 0 W/m2
04:49 24.2 °C 22.1 °C 1020.2 hPa Calm     88% 0 mm 0 W/m2
04:54 24.2 °C 22.1 °C 1020.2 hPa Calm     88% 0 mm 0 W/m2
04:59 24.2 °C 22.1 °C 1020.5 hPa Calm     88% 0 mm 0 W/m2
05:04 24.1 °C 22 °C 1020.5 hPa Calm     88% 0 mm 0 W/m2
05:09 24.1 °C 22 °C 1020.5 hPa Calm     88% 0 mm 0 W/m2
05:14 24.1 °C 22 °C 1020.5 hPa Calm     88% 0 mm 0 W/m2
05:19 24.1 °C 22 °C 1020.5 hPa Calm     88% 0 mm 0 W/m2
05:24 24.1 °C 22 °C 1020.5 hPa Calm     88% 0 mm 0 W/m2
05:29 24.1 °C 22 °C 1020.5 hPa Calm     88% 0 mm 5 W/m2
05:34 24.1 °C 22 °C 1020.5 hPa Calm     88% 0 mm 5 W/m2
05:39 24.1 °C 22.1 °C 1020.5 hPa Calm     88.3% 0 mm 9 W/m2
05:44 24.1 °C 22.1 °C 1020.5 hPa Calm     88.5% 0 mm 11 W/m2
05:49 24.2 °C 22.2 °C 1020.5 hPa Calm     89% 0 mm 12 W/m2
05:54 24.2 °C 22.2 °C 1020.5 hPa Calm     89% 0 mm 14 W/m2
05:59 24.2 °C 22.3 °C 1020.5 hPa Calm     89% 0 mm 18 W/m2
06:04 24.2 °C 22.3 °C 1020.5 hPa Calm     89% 0 mm 19 W/m2
06:09 24.3 °C 22.4 °C 1020.5 hPa Calm     89% 0 mm 21 W/m2
06:14 24.4 °C 22.4 °C 1020.5 hPa Calm     89% 0 mm 23 W/m2
06:19 24.4 °C 22.5 °C 1020.5 hPa Calm     88.9% 0 mm 26 W/m2
06:24 24.6 °C 22.4 °C 1020.9 hPa Calm     88.1% 0 mm 28 W/m2
06:29 24.6 °C 22.6 °C 1020.9 hPa Calm     88.5% 0 mm 33 W/m2
06:34 24.7 °C 22.6 °C 1020.9 hPa Calm     88% 0 mm 40 W/m2
06:39 24.9 °C 22.8 °C 1020.9 hPa Calm     88% 0 mm 47 W/m2
06:44 25 °C 22.9 °C 1020.9 hPa Calm     88% 0 mm 53 W/m2
06:49 25.3 °C 23 °C 1020.9 hPa Calm     87.2% 0 mm 62 W/m2
06:54 25.6 °C 23.2 °C 1020.9 hPa Calm     86.7% 0 mm 65 W/m2
06:59 26.1 °C 23.3 °C 1020.9 hPa Calm     85.2% 0 mm 69 W/m2
07:04 26.5 °C 23.4 °C 1020.9 hPa Calm     83.4% 0 mm 70 W/m2
07:09 27 °C 23.6 °C 1020.9 hPa Calm     81.6% 0 mm 84 W/m2
07:14 27.4 °C 23.8 °C 1020.9 hPa Calm     80.3% 0 mm 79 W/m2
07:19 27.8 °C 24 °C 1020.9 hPa Calm     79.5% 0 mm 77 W/m2
07:24 28.2 °C 24 °C 1020.9 hPa Calm     78.2% 0 mm 114 W/m2
07:29 28.5 °C 24.1 °C 1020.9 hPa Calm     76.9% 0 mm 285 W/m2
07:34 28.7 °C 24.2 °C 1020.9 hPa Calm     76.6% 0 mm 301 W/m2
07:39 29.1 °C 24.4 °C 1020.9 hPa Calm     76.1% 0 mm 315 W/m2
07:44 29.3 °C 24.3 °C 1020.9 hPa Calm     74.7% 0 mm 334 W/m2
07:49 29.6 °C 24.4 °C 1020.9 hPa Calm     74% 0 mm 352 W/m2
07:54 29.8 °C 24.6 °C 1020.9 hPa Calm     73.3% 0 mm 369 W/m2
07:59 30.1 °C 24.6 °C 1020.9 hPa Calm     72.1% 0 mm 383 W/m2
08:00 30.2 °C 24.8 °C 1020.9 hPa Calm     73% 0 mm 383 W/m2
08:09 30.5 °C 24.9 °C 1020.9 hPa Calm     72% 0 mm 408 W/m2
08:14 30.8 °C 25 °C 1020.9 hPa Calm     71.3% 0 mm 429 W/m2
08:19 31.1 °C 25.2 °C 1020.9 hPa Calm     71% 0 mm 469 W/m2
08:24 31.3 °C 25.2 °C 1020.9 hPa Calm     69.9% 0 mm 469 W/m2
08:29 31.4 °C 24.8 °C 1020.9 hPa Calm     68.1% 0 mm 476 W/m2
08:34 31.4 °C 25.1 °C 1020.9 hPa Calm     69.3% 0 mm 489 W/m2
08:39 31.7 °C 25.4 °C 1020.9 hPa Calm     69.6% 0 mm 504 W/m2
08:44 31.9 °C 25.4 °C 1020.9 hPa Calm     68.5% 0 mm 519 W/m2
08:49 32.2 °C 25.6 °C 1020.9 hPa Calm     68.2% 0 mm 529 W/m2
08:54 32.3 °C 25.1 °C 1020.9 hPa Calm     65.8% 0 mm 552 W/m2
08:59 32.3 °C 25.4 °C 1020.5 hPa Calm     67% 0 mm 561 W/m2
09:04 32.5 °C 25.4 °C 1020.5 hPa Calm     66.4% 0 mm 578 W/m2
09:09 32.7 °C 25.8 °C 1020.5 hPa Calm     67.3% 0 mm 594 W/m2
09:14 32.9 °C 25.8 °C 1020.5 hPa Calm     66% 0 mm 606 W/m2
09:19 33.2 °C 25.7 °C 1020.5 hPa Calm     65% 0 mm 622 W/m2
09:24 33.3 °C 25.7 °C 1020.5 hPa Calm     64.5% 0 mm 631 W/m2
09:29 33.4 °C 26 °C 1020.5 hPa Calm     65.2% 0 mm 649 W/m2
09:34 33.7 °C 26 °C 1020.5 hPa Calm     64.4% 0 mm 663 W/m2
09:39 33.8 °C 25.9 °C 1020.5 hPa Calm     63.7% 0 mm 673 W/m2
09:44 33.9 °C 25.8 °C 1020.2 hPa Calm     62.9% 0 mm 684 W/m2
09:49 33.9 °C 25.8 °C 1020.2 hPa Calm     62.8% 0 mm 696 W/m2
09:54 33.7 °C 25.9 °C 1020.2 hPa Calm     63.8% 0 mm 710 W/m2
09:59 33.9 °C 25.8 °C 1020.2 hPa Calm     63% 0 mm 724 W/m2
10:04 34.2 °C 25.7 °C 1020.2 hPa Calm     61.3% 0 mm 733 W/m2
10:09 34.4 °C 25.7 °C 1020.2 hPa Calm     60.9% 0 mm 744 W/m2
10:14 34.6 °C 25.7 °C 1020.2 hPa Calm     60.3% 0 mm 749 W/m2
10:19 34.7 °C 25.3 °C 1020.2 hPa Calm     58.5% 0 mm 759 W/m2
10:24 34.7 °C 25.8 °C 1019.9 hPa West 2.9 km/h 11.3 km/h 59.9% 0 mm 766 W/m2
10:29 34.9 °C 25.6 °C 1019.9 hPa West 0.2 km/h 11.3 km/h 58.5% 0 mm 777 W/m2
10:34 35.3 °C 26.4 °C 1019.9 hPa WNW 1 km/h 11.3 km/h 60.1% 0 mm 782 W/m2
10:39 35.6 °C 25.7 °C 1019.9 hPa Calm   8 km/h 56.6% 0 mm 789 W/m2
10:44 35.7 °C 25.6 °C 1019.9 hPa WNW 0.3 km/h 8 km/h 56% 0 mm 800 W/m2
10:49 35.8 °C 25.9 °C 1019.9 hPa West 0.8 km/h 8 km/h 56.5% 0 mm 809 W/m2
10:54 36.1 °C 26.1 °C 1019.9 hPa West 2.4 km/h 14.5 km/h 56.7% 0 mm 819 W/m2
10:59 36.2 °C 25.9 °C 1019.9 hPa West 0.8 km/h 14.5 km/h 55.7% 0 mm 828 W/m2
11:02 36.3 °C 25.8 °C 1019.9 hPa West 0.5 km/h 14.5 km/h 55.1% 0 mm 842 W/m2
11:30 36.7 °C 25.6 °C 1019.5 hPa NW 3.2 km/h 16.1 km/h 53% 0 mm 845 W/m2
12:04 36.5 °C 25.1 °C 1019.2 hPa West 0.6 km/h 3.2 km/h 52% 0 mm 918 W/m2
12:09 36.6 °C 24.8 °C 1019.2 hPa West 1 km/h 4.8 km/h 51.1% 0 mm 918 W/m2
12:10 36.6 °C 24.8 °C 1019.2 hPa West 2.1 km/h 4.8 km/h 51% 0 mm 916 W/m2
12:30 37.1 °C 23.9 °C 1018.8 hPa West 1.6 km/h 9.7 km/h 47% 0 mm 921 W/m2
13:00 37.3 °C 25.2 °C 1018.5 hPa West 1.6 km/h 14.5 km/h 50% 0 mm 947 W/m2
13:30 37.3 °C 23.7 °C 1018.2 hPa West 3.2 km/h 9.7 km/h 46% 0 mm 873 W/m2
14:30 37.4 °C 23.9 °C 1017.8 hPa WSW 3.2 km/h 14.5 km/h 46% 0 mm 919 W/m2
15:00 37.5 °C 24.3 °C 1017.5 hPa WSW 3.2 km/h 20.9 km/h 47% 0 mm 744 W/m2
15:30 37.6 °C 25.7 °C 1017.5 hPa SW 3.2 km/h 16.1 km/h 51% 0 mm 823 W/m2
16:04 37.3 °C 23.9 °C 1017.2 hPa WSW 2.7 km/h 6.4 km/h 46.4% 0 mm 113 W/m2
16:09 37.2 °C 24 °C 1017.2 hPa SW 2.6 km/h 9.7 km/h 47% 0 mm 684 W/m2
16:14 37 °C 24.1 °C 1017.2 hPa WSW 2.4 km/h 9.7 km/h 47.9% 0 mm 673 W/m2
16:19 36.9 °C 24.2 °C 1016.8 hPa WNW 3.5 km/h 14.5 km/h 48.5% 0 mm 633 W/m2
16:24 36.8 °C 24.2 °C 1016.8 hPa WSW 3.5 km/h 14.5 km/h 48.5% 0 mm 97 W/m2
16:29 36.8 °C 24.3 °C 1016.8 hPa WSW 3.2 km/h 14.5 km/h 49% 0 mm 86 W/m2
16:34 36.7 °C 23.9 °C 1016.8 hPa WSW 3.7 km/h 14.5 km/h 48.2% 0 mm 98 W/m2
16:39 36.6 °C 24.5 °C 1016.8 hPa WSW 2.3 km/h 12.9 km/h 50% 0 mm 98 W/m2
16:44 36.7 °C 24.3 °C 1016.5 hPa WSW 2.9 km/h 12.9 km/h 49.2% 0 mm 79 W/m2
16:49 36.6 °C 24.1 °C 1016.5 hPa WSW 3.2 km/h 14.5 km/h 48.9% 0 mm 114 W/m2
16:54 36.5 °C 23.8 °C 1016.5 hPa SW 2.7 km/h 16.1 km/h 48.1% 0 mm 127 W/m2
16:59 36.4 °C 23.9 °C 1016.5 hPa WSW 3.2 km/h 16.1 km/h 48.9% 0 mm 123 W/m2
17:04 36.5 °C 24 °C 1016.5 hPa West 3.1 km/h 16.1 km/h 48.8% 0 mm 90 W/m2
17:09 36.5 °C 24.2 °C 1016.1 hPa WSW 2.1 km/h 9.7 km/h 49.4% 0 mm 77 W/m2
17:14 36.5 °C 24.2 °C 1016.1 hPa WSW 2.4 km/h 9.7 km/h 49.3% 0 mm 77 W/m2
17:19 36.4 °C 24 °C 1016.1 hPa SW 4.3 km/h 12.9 km/h 49.1% 0 mm 77 W/m2
17:24 36.3 °C 23.6 °C 1016.1 hPa SW 3.5 km/h 12.9 km/h 48% 0 mm 65 W/m2
17:29 36.2 °C 23.7 °C 1016.1 hPa SW 4.2 km/h 12.9 km/h 48.7% 0 mm 90 W/m2
17:34 36 °C 23.7 °C 1016.5 hPa WSW 5.5 km/h 14.5 km/h 49.3% 0 mm 98 W/m2
17:39 35.9 °C 23.7 °C 1016.5 hPa WSW 3.7 km/h 14.5 km/h 49.5% 0 mm 109 W/m2
17:44 35.8 °C 23.4 °C 1016.5 hPa SW 2.6 km/h 14.5 km/h 49% 0 mm 127 W/m2
17:49 35.8 °C 23.8 °C 1016.5 hPa SW 3.2 km/h 14.5 km/h 50.1% 0 mm 128 W/m2
17:54 35.8 °C 23.7 °C 1016.5 hPa WSW 2.7 km/h 14.5 km/h 49.7% 0 mm 91 W/m2
17:59 35.8 °C 24 °C 1016.5 hPa WSW 3.1 km/h 14.5 km/h 50.7% 0 mm 83 W/m2
18:04 35.7 °C 23.8 °C 1016.5 hPa WSW 2.7 km/h 14.5 km/h 50.5% 0 mm 88 W/m2
18:09 35.6 °C 23.8 °C 1016.5 hPa WSW 2.7 km/h 11.3 km/h 50.8% 0 mm 63 W/m2
18:14 35.4 °C 23.8 °C 1016.5 hPa SW 2.6 km/h 11.3 km/h 51% 0 mm 39 W/m2
18:19 35.2 °C 24.9 °C 1016.5 hPa SW 3.7 km/h 11.3 km/h 55.7% 0 mm 18 W/m2
18:24 34.7 °C 25.2 °C 1016.5 hPa SW 2.3 km/h 11.3 km/h 57.6% 0 mm 16 W/m2
18:29 34.3 °C 25.2 °C 1016.1 hPa SW 2.1 km/h 11.3 km/h 59.1% 0 mm 14 W/m2
18:34 33.9 °C 25.2 °C 1016.5 hPa SW 0.2 km/h 11.3 km/h 60.5% 0 mm 12 W/m2
18:39 33.7 °C 25.3 °C 1016.5 hPa SSW 0.3 km/h 6.4 km/h 61.8% 0 mm 12 W/m2
18:44 33.4 °C 25.3 °C 1016.5 hPa SW 0.8 km/h 9.7 km/h 62.5% 0 mm 14 W/m2
18:49 33.2 °C 25.3 °C 1016.5 hPa SW 3.2 km/h 9.7 km/h 63.1% 0 mm 16 W/m2
18:54 33 °C 25.2 °C 1016.8 hPa WSW 2.6 km/h 11.3 km/h 63.6% 0 mm 25 W/m2
18:59 32.9 °C 25.2 °C 1016.8 hPa SW 1.8 km/h 11.3 km/h 64.1% 0 mm 25 W/m2
19:04 32.8 °C 25.3 °C 1017.2 hPa WSW 4.5 km/h 19.3 km/h 65% 0 mm 19 W/m2
19:09 32.6 °C 24.3 °C 1017.2 hPa SW 10 km/h 40.2 km/h 62% 0 mm 44 W/m2
19:14 31.8 °C 23.9 °C 1017.8 hPa SW 6.8 km/h 40.2 km/h 63.1% 3.81 mm 79 W/m2
19:19 30.1 °C 23.9 °C 1017.5 hPa SSW 1.3 km/h 40.2 km/h 69.7% 5.59 mm 155 W/m2
19:24 28.7 °C 23.9 °C 1017.5 hPa Calm   40.2 km/h 75.3% 5.59 mm 155 W/m2
19:29 27.9 °C 24.2 °C 1017.5 hPa Calm   40.2 km/h 79.9% 5.59 mm 118 W/m2
19:34 27.5 °C 24.4 °C 1017.5 hPa Calm   40.2 km/h 83.6% 5.59 mm 120 W/m2
19:39 27.1 °C 24.4 °C 1017.5 hPa Calm     85% 5.59 mm 111 W/m2
19:44 26.8 °C 24.2 °C 1017.5 hPa Calm     85.9% 5.59 mm 109 W/m2
19:49 26.6 °C 24.4 °C 1017.8 hPa South 1.8 km/h 6.4 km/h 87.9% 5.59 mm 70 W/m2
19:54 26.4 °C 24.2 °C 1017.8 hPa North 0.5 km/h 9.7 km/h 87.8% 5.59 mm 40 W/m2
19:59 26.2 °C 24.1 °C 1018.2 hPa ENE 0.5 km/h 9.7 km/h 88% 5.59 mm 9 W/m2
20:04 26.1 °C 24.2 °C 1018.2 hPa Calm     89% 5.59 mm 7 W/m2
20:09 26.1 °C 24.1 °C 1018.5 hPa Calm     89% 5.59 mm 7 W/m2
20:14 26 °C 24.1 °C 1018.5 hPa ENE 0.2 km/h 1.6 km/h 89% 5.59 mm 0 W/m2
20:19 25.9 °C 24.1 °C 1018.5 hPa Calm   1.6 km/h 89.6% 5.59 mm 0 W/m2
20:24 25.9 °C 24.2 °C 1018.5 hPa Calm   1.6 km/h 90% 5.59 mm 0 W/m2
20:29 25.9 °C 24.2 °C 1018.2 hPa Calm   1.6 km/h 90% 5.59 mm 0 W/m2
20:34 25.9 °C 24.2 °C 1017.8 hPa Calm   1.6 km/h 90.3% 5.59 mm 0 W/m2
20:39 25.9 °C 24.3 °C 1017.8 hPa Calm     91% 0.25 mm 0 W/m2
20:44 25.9 °C 24.4 °C 1017.8 hPa Calm     91% 0.25 mm 0 W/m2
20:49 26 °C 24.4 °C 1017.8 hPa Calm     91% 0.25 mm 0 W/m2
20:54 26 °C 24.6 °C 1018.2 hPa Calm     91.7% 0.25 mm 0 W/m2
20:59 25.9 °C 24.6 °C 1018.2 hPa Calm     92% 0.25 mm 0 W/m2
21:04 25.9 °C 24.6 °C 1018.2 hPa Calm     92% 0.25 mm 0 W/m2
21:09 25.9 °C 24.6 °C 1018.2 hPa Calm     92% 0.25 mm 0 W/m2
21:14 25.9 °C 24.5 °C 1017.8 hPa Calm     92% 0.25 mm 0 W/m2
21:19 25.8 °C 24.4 °C 1018.2 hPa Calm     92% 0.25 mm 0 W/m2
21:24 25.8 °C 24.4 °C 1018.2 hPa Calm     92% 0.25 mm 0 W/m2
21:29 25.8 °C 24.4 °C 1018.2 hPa Calm     92% 0.25 mm 0 W/m2
21:34 25.8 °C 24.4 °C 1017.8 hPa Calm     92% 0.25 mm 0 W/m2
21:39 25.7 °C 24.3 °C 1017.8 hPa Calm     92% 0.25 mm 0 W/m2
21:44 25.7 °C 24.5 °C 1017.8 hPa Calm     93% 0.25 mm 0 W/m2
21:49 25.7 °C 24.4 °C 1017.8 hPa Calm     93% 0.25 mm 0 W/m2
21:54 25.6 °C 24.4 °C 1017.5 hPa Calm     93% 0.25 mm 0 W/m2
21:59 25.6 °C 24.3 °C 1017.5 hPa Calm     93% 0.25 mm 0 W/m2
22:04 25.5 °C 24.3 °C 1017.5 hPa Calm     93% 0.25 mm 0 W/m2
22:09 25.4 °C 24.2 °C 1017.5 hPa Calm     93% 0 mm 0 W/m2
22:14 25.4 °C 24.2 °C 1017.5 hPa Calm     93% 0 mm 0 W/m2
22:19 25.4 °C 24.2 °C 1017.5 hPa Calm     93% 0 mm 0 W/m2
22:24 25.3 °C 24.1 °C 1017.5 hPa Calm     93% 0 mm 0 W/m2
22:29 25.3 °C 24.1 °C 1017.5 hPa Calm     93% 0 mm 0 W/m2
22:34 25.3 °C 24.1 °C 1017.5 hPa Calm     93% 0 mm 0 W/m2
22:39 25.2 °C 24.1 °C 1017.2 hPa Calm     93% 0 mm 0 W/m2
22:44 25.2 °C 23.9 °C 1017.2 hPa Calm     93% 0 mm 0 W/m2
22:49 25.1 °C 23.9 °C 1016.8 hPa Calm     93% 0 mm 0 W/m2
22:54 25.1 °C 23.8 °C 1017.2 hPa Calm     93% 0 mm 0 W/m2
22:59 25.1 °C 23.8 °C 1017.2 hPa Calm     93% 0 mm 0 W/m2
23:04 25.1 °C 23.9 °C 1017.5 hPa Calm     93.7% 0 mm 0 W/m2
23:09 25.1 °C 24 °C 1017.5 hPa North 1.3 km/h 9.7 km/h 93.8% 0 mm 0 W/m2
23:14 24.9 °C 23.7 °C 1017.5 hPa Calm   9.7 km/h 93% 0 mm 0 W/m2
23:19 24.8 °C 23.7 °C 1017.5 hPa Calm   9.7 km/h 93% 0 mm 0 W/m2
23:24 24.8 °C 23.7 °C 1017.5 hPa Calm   9.7 km/h 93.3% 0 mm 0 W/m2
23:29 24.8 °C 23.7 °C 1017.5 hPa Calm   9.7 km/h 94% 0 mm 0 W/m2
23:34 24.7 °C 23.7 °C 1017.5 hPa Calm   9.7 km/h 94% 0 mm 0 W/m2
23:39 24.7 °C 23.7 °C 1017.5 hPa Calm     94% 0 mm 0 W/m2
23:44 24.7 °C 23.7 °C 1017.5 hPa Calm     94% 0 mm 0 W/m2
23:49 24.7 °C 23.6 °C 1017.5 hPa Calm     94% 0 mm 0 W/m2
23:54 24.6 °C 23.6 °C 1017.5 hPa Calm     94% 0 mm 0 W/m2
23:59 24.6 °C 23.6 °C 1017.5 hPa Calm     94% 0 mm 0 W/m2
Hartford County Weather
Compliments of Weather Underground - 2 mb